Latest Weather Observations for Roseworthy

IDS60901

Issued at 7:31 pm CST Monday 1 June 2020 (issued every 10 minutes, with the page automatically refreshed every 10 minutes)

About weather observations | Map of Adelaide area stations | Latest observations for Adelaide area | Other Formats
Station Details ID: 023122 Name: ROSEWORTHY AWS Lat: -34.51 Lon: 138.68 Height: 65.0 m
Data from the previous 72 hours. | See also: Recent months at Roseworthy
Date/Time
CST
Temp
°C
App
Temp
°C
Dew
Point
°C
Rel
Hum
%
Delta-T
°C
Wind Press
QNH
hPa
Press
MSL
hPa
Rain since
9am
mm
Dir  Spd
km/h
Gust
km/h
Spd
kts
Gust
kts
01/07:30pm 10.4 7.9 9.8 96 0.3 WSW 13 20 7 11 1022.4 1022.5 0.2
01/07:00pm 10.2 7.2 9.1 93 0.5 NW 15 17 8 9 1022.0 1022.1 0.0
01/06:30pm 10.7 8.3 8.5 86 1.1 WSW 11 19 6 10 1021.4 1021.5 0.0
01/06:00pm 11.0 7.9 8.9 87 1.0 WSW 15 22 8 12 1021.1 1021.2 0.0
01/05:30pm 11.2 8.7 8.4 83 1.4 W 11 13 6 7 1020.6 1020.7 0.0
01/05:00pm 11.8 8.4 7.7 76 2.0 SW 15 19 8 10 1020.5 1020.6 0.0
01/04:30pm 12.4 8.4 8.1 75 2.1 WSW 19 24 10 13 1020.1 1020.2 0.0
01/04:00pm 12.9 8.3 8.2 73 2.3 WSW 22 33 12 18 1019.8 1019.8 0.0
01/03:30pm 12.8 9.2 8.5 75 2.1 WSW 17 24 9 13 1019.6 1019.6 0.0
01/03:00pm 13.3 7.7 7.3 67 2.9 WSW 26 39 14 21 1019.4 1019.4 0.0
01/02:30pm 13.6 7.6 7.2 65 3.1 SW 28 37 15 20 1019.1 1019.1 0.0
01/02:00pm 13.6 8.0 7.2 65 3.1 SW 26 39 14 21 1018.9 1018.9 0.0
01/01:30pm 13.5 6.3 6.1 61 3.5 WSW 33 46 18 25 1018.8 1018.8 0.0
01/01:00pm 13.6 6.1 6.2 61 3.5 WSW 35 44 19 24 1018.7 1018.7 0.0
01/12:30pm 13.4 6.7 7.4 67 2.9 SW 32 43 17 23 1018.8 1018.8 0.0
01/12:08pm 13.1 6.2 7.1 67 2.9 WSW 33 52 18 28 1018.7 1018.7 0.0
01/12:00pm 13.0 6.1 7.2 68 2.8 SW 33 46 18 25 1018.8 1018.8 0.0
01/11:30am 12.8 6.7 6.6 66 3.0 WSW 28 41 15 22 1018.9 1018.9 0.0
01/11:00am 12.9 6.0 7.4 69 2.7 SW 33 44 18 24 1018.8 1018.8 0.0
01/10:30am 12.7 5.9 6.7 67 2.9 SW 32 46 17 25 1018.7 1018.7 0.0
01/10:00am 12.6 6.2 6.9 68 2.7 SW 30 43 16 23 1018.3 1018.3 0.0
01/09:50am 12.3 5.7 6.1 66 2.9 WSW 30 48 16 26 1018.1 1018.1 0.0
01/09:30am 12.0 6.3 6.7 70 2.5 WSW 26 35 14 19 1018.0 1018.0 0.0
01/09:00am 11.3 5.4 6.0 70 2.5 WSW 26 37 14 20 1017.8 1017.8 4.0
01/08:30am 11.1 5.5 5.6 69 2.5 WSW 24 37 13 20 1017.4 1017.3 4.0
01/08:00am 10.4 5.2 5.6 72 2.2 WSW 22 33 12 18 1016.9 1016.8 4.0
01/07:30am 9.8 5.2 5.6 75 1.9 WSW 19 24 10 13 1016.3 1016.2 4.0
01/07:00am 9.6 4.8 5.8 77 1.7 SW 20 30 11 16 1015.6 1015.5 4.0
01/06:30am 9.7 4.8 5.3 74 2.0 WSW 20 28 11 15 1015.0 1014.9 4.0
01/06:00am 9.8 4.2 5.2 73 2.1 SW 24 35 13 19 1014.7 1014.6 4.0
01/05:30am 9.5 4.2 5.1 74 2.0 WSW 22 32 12 17 1014.3 1014.2 4.0
01/05:00am 9.6 4.3 5.0 73 2.1 WSW 22 30 12 16 1013.9 1013.8 4.0
01/04:30am 9.4 3.8 5.2 75 1.9 SW 24 33 13 18 1013.7 1013.6 4.0
01/04:00am 9.9 3.5 5.1 72 2.2 WSW 28 39 15 21 1013.1 1013.1 4.0
01/03:30am 10.0 3.2 5.2 72 2.2 WSW 30 41 16 22 1013.0 1013.0 4.0
01/03:00am 10.2 4.0 6.0 75 1.9 SW 28 37 15 20 1012.7 1012.7 4.0
01/02:30am 10.3 3.5 7.0 80 1.6 SW 32 46 17 25 1012.2 1012.2 4.0
01/02:00am 11.2 4.7 6.7 74 2.1 SW 30 43 16 23 1011.6 1011.6 4.0
01/01:30am 11.2 4.8 7.1 76 2.0 WSW 30 41 16 22 1011.2 1011.2 4.0
01/01:00am 11.4 4.0 6.9 74 2.1 WSW 35 48 19 26 1011.0 1011.0 4.0
01/12:32am 12.2 6.2 8.7 79 1.7 WSW 30 54 16 29 1010.5 1010.5 4.0
01/12:30am 12.2 6.7 9.0 81 1.6 WSW 28 39 15 21 1010.4 1010.4 4.0
01/12:00am 11.5 6.9 11.0 97 0.3 W 26 35 14 19 1009.8 1009.8 4.0
 
Date/Time
CST
Temp
°C
App
Temp
°C
Dew
Point
°C
Rel
Hum
%
Delta-T
°C
Wind Press
QNH
hPa
Press
MSL
hPa
Rain since
9am
mm
Dir  Spd
km/h
Gust
km/h
Spd
kts
Gust
kts
31/11:30pm 11.4 3.8 10.6 95 0.4 W 41 69 22 37 1009.5 1009.5 4.0
31/11:24pm 11.5 3.4 10.7 95 0.4 WNW 44 69 24 37 1009.6 1009.6 4.0
31/11:21pm 11.5 3.6 10.9 96 0.3 NW 43 69 23 37 1009.2 1009.2 3.8
31/11:00pm 11.5 3.2 10.2 92 0.7 NW 44 59 24 32 1008.9 1008.9 2.4
31/10:30pm 11.7 2.7 10.1 90 0.8 NNW 48 61 26 33 1009.0 1009.0 2.4
31/10:00pm 11.8 3.7 10.2 90 0.8 NW 43 56 23 30 1009.3 1009.3 2.4
31/09:30pm 12.1 4.5 10.5 90 0.8 NW 41 56 22 30 1009.6 1009.6 2.0
31/09:24pm 12.2 5.8 10.8 91 0.7 NW 35 56 19 30 1009.7 1009.7 1.8
31/09:00pm 12.2 6.2 10.8 91 0.7 NNW 33 46 18 25 1009.8 1009.8 1.2
31/08:30pm 12.0 6.3 11.2 95 0.4 NNW 32 41 17 22 1010.1 1010.1 1.2
31/08:00pm 11.7 4.7 11.2 97 0.3 NNW 39 52 21 28 1010.4 1010.4 1.2
31/07:30pm 12.0 6.7 11.4 96 0.3 NNW 30 37 16 20 1010.8 1010.8 0.6
31/07:00pm 12.0 7.0 10.9 93 0.6 NNW 28 37 15 20 1011.1 1011.1 0.4
31/06:30pm 13.2 7.7 9.3 77 2.0 NW 28 39 15 21 1011.0 1011.0 0.0
31/06:00pm 13.0 7.2 9.4 79 1.8 NW 30 39 16 21 1011.1 1011.1 0.0
31/05:39pm 14.2 8.6 8.6 69 2.8 NW 28 59 15 32 1011.2 1011.2 0.0
31/05:30pm 14.3 8.8 7.6 64 3.3 NW 26 32 14 17 1011.0 1011.0 0.0
31/05:00pm 14.5 8.6 7.5 63 3.5 NW 28 37 15 20 1011.2 1011.2 0.0
31/04:30pm 14.9 8.1 7.7 62 3.6 NW 33 41 18 22 1011.3 1011.3 0.0
31/04:00pm 15.1 7.9 7.6 61 3.7 NW 35 46 19 25 1011.7 1011.7 0.0
31/03:30pm 15.1 8.3 7.6 61 3.7 NW 33 44 18 24 1012.0 1012.0 0.0
31/03:00pm 14.9 8.2 7.5 61 3.7 NW 32 41 17 22 1012.2 1012.2 0.0
31/02:30pm 14.9 8.5 7.0 59 3.9 NW 30 39 16 21 1012.4 1012.4 0.0
31/02:00pm 15.5 8.7 7.0 57 4.2 NW 32 41 17 22 1012.5 1012.5 0.0
31/01:30pm 15.7 8.8 6.4 54 4.5 WNW 32 39 17 21 1012.8 1012.8 0.0
31/01:00pm 16.0 9.2 7.0 55 4.5 WNW 32 41 17 22 1013.3 1013.3 0.0
31/12:30pm 15.6 8.2 6.6 55 4.4 WNW 35 43 19 23 1013.9 1013.8 0.0
31/12:00pm 15.9 9.6 7.4 57 4.2 WNW 30 37 16 20 1014.4 1014.3 0.0
31/11:30am 15.4 9.4 7.2 58 4.1 NW 28 39 15 21 1014.9 1014.8 0.0
31/11:00am 15.4 9.9 9.3 67 3.1 NW 28 39 15 21 1015.2 1015.1 0.0
31/10:30am 14.5 8.9 10.3 76 2.2 NW 30 35 16 19 1015.3 1015.2 0.0
31/10:00am 13.6 8.8 11.8 89 1.0 NW 28 33 15 18 1015.5 1015.4 0.0
31/09:30am 12.5 7.2 11.4 93 0.6 NW 30 35 16 19 1015.8 1015.7 0.0
31/09:00am 11.6 7.0 11.1 97 0.3 NNW 26 32 14 17 1015.6 1015.5 0.2
31/08:30am 10.6 7.2 10.6 100 0.0 NNW 19 24 10 13 1015.5 1015.4 0.2
31/08:00am 9.4 5.7 9.4 100 0.0 N 19 24 10 13 1015.2 1015.1 0.2
31/07:30am 8.4 4.8 8.4 100 0.0 N 17 19 9 10 1014.9 1014.8 0.2
31/07:00am 8.9 5.4 8.9 100 0.0 N 17 19 9 10 1015.0 1014.9 0.2
31/06:30am 8.9 6.2 8.9 100 0.0 NNW 13 17 7 9 1014.8 1014.7 0.2
31/06:00am 9.8 7.3 9.8 100 0.0 NW 13 17 7 9 1014.9 1014.8 0.2
31/05:30am 9.1 6.4 9.1 100 0.0 NW 13 17 7 9 1015.0 1014.9 0.0
31/05:00am 9.0 5.2 9.0 100 0.0 NNW 19 20 10 11 1014.4 1014.3 0.0
31/04:30am 8.9 5.4 8.9 100 0.0 NNW 17 20 9 11 1014.3 1014.2 0.0
31/04:00am 9.2 5.4 9.2 100 0.0 NNW 19 20 10 11 1014.1 1014.0 0.0
31/03:30am 9.5 5.8 9.5 100 0.0 NW 19 24 10 13 1014.1 1014.0 0.0
31/03:00am 9.6 6.3 9.6 100 0.0 NNW 17 20 9 11 1014.1 1014.0 0.0
31/02:30am 10.5 6.5 10.5 100 0.0 NW 22 30 12 16 1014.2 1014.1 0.0
31/02:00am 10.6 7.0 10.6 100 0.0 NW 20 28 11 15 1014.1 1014.0 0.0
31/01:30am 10.5 6.5 10.5 100 0.0 NW 22 26 12 14 1014.3 1014.2 0.0
31/01:00am 10.6 6.3 10.6 100 0.0 NW 24 30 13 16 1014.3 1014.2 0.0
31/12:30am 10.6 6.2 10.4 99 0.1 NW 24 30 13 16 1014.2 1014.1 0.0
31/12:00am 10.6 6.9 10.3 98 0.2 NW 20 26 11 14 1014.3 1014.2 0.0
 
Date/Time
CST
Temp
°C
App
Temp
°C
Dew
Point
°C
Rel
Hum
%
Delta-T
°C
Wind Press
QNH
hPa
Press
MSL
hPa
Rain since
9am
mm
Dir  Spd
km/h
Gust
km/h
Spd
kts
Gust
kts
30/11:30pm 10.7 7.2 10.1 96 0.3 NW 19 22 10 12 1014.3 1014.2 0.0
30/11:00pm 11.1 7.4 10.0 93 0.6 NW 20 26 11 14 1014.1 1014.0 0.0
30/10:30pm 11.6 7.1 10.0 90 0.8 NW 24 28 13 15 1014.1 1014.0 0.0
30/10:00pm 12.2 7.8 10.3 88 1.0 NW 24 30 13 16 1013.9 1013.8 0.0
30/09:30pm 12.8 7.7 10.7 87 1.1 NW 28 35 15 19 1013.5 1013.4 0.0
30/09:00pm 13.5 7.4 9.6 77 2.0 NW 32 39 17 21 1012.9 1012.9 0.0
30/08:30pm 14.0 8.2 8.0 67 3.0 NW 28 35 15 19 1013.2 1013.2 0.0
30/08:00pm 14.4 7.8 7.7 64 3.3 NW 32 41 17 22 1013.2 1013.2 0.0
30/07:30pm 14.9 8.1 7.0 59 3.9 NNW 32 41 17 22 1012.7 1012.7 0.0
30/07:00pm 15.0 9.2 6.3 56 4.2 NNW 26 35 14 19 1012.5 1012.5 0.0
30/06:30pm 15.1 8.1 6.1 55 4.3 NNW 32 41 17 22 1011.9 1011.9 0.0
30/06:00pm 15.3 6.9 5.8 53 4.6 NNW 39 50 21 27 1011.2 1011.2 0.0
30/05:30pm 15.0 7.3 5.5 53 4.5 NNW 35 46 19 25 1010.6 1010.6 0.0
30/05:00pm 15.4 6.0 5.3 51 4.8 NNW 44 61 24 33 1010.6 1010.6 0.0
30/04:30pm 15.7 5.9 5.3 50 5.0 N 46 56 25 30 1010.4 1010.4 0.0
30/04:00pm 15.5 5.9 6.2 54 4.5 N 46 65 25 35 1010.4 1010.4 0.0
30/03:51pm 15.7 6.5 6.2 53 4.6 N 44 65 24 35 1010.4 1010.4 0.0
30/03:30pm 15.8 5.8 6.3 53 4.6 N 48 61 26 33 1010.7 1010.7 0.0
30/03:00pm 17.9 5.8 3.4 38 6.8 NNW 56 70 30 38 1010.5 1010.5 0.0
30/02:46pm 17.8 6.5 3.7 39 6.6 NNW 52 70 28 38 1010.7 1010.7 0.0
30/02:30pm 17.8 5.6 2.9 37 6.9 NNW 56 70 30 38 1010.9 1010.9 0.0
30/02:00pm 18.2 4.2 2.1 34 7.3 NNW 65 85 35 46 1011.2 1011.2 0.0
30/01:30pm 18.4 6.1 1.9 33 7.5 NNW 56 80 30 43 1011.6 1011.6 0.0
30/01:17pm 18.7 9.0 2.9 35 7.3 NW 43 63 23 34 1012.0 1012.0 0.0
30/01:00pm 19.6 9.6 2.0 31 8.1 NNW 44 56 24 30 1012.0 1012.0 0.0
30/12:30pm 20.3 8.8 2.2 30 8.4 NNW 52 65 28 35 1011.4 1011.4 0.0
30/12:00pm 21.2 10.0 2.0 28 8.9 N 50 65 27 35 1011.5 1011.5 0.0
30/11:41am 20.9 11.1 2.2 29 8.7 N 43 61 23 33 1012.0 1012.0 0.0
30/11:30am 20.2 10.3 3.0 32 8.1 N 44 54 24 29 1012.4 1012.4 0.0
30/11:00am 19.5 9.2 2.8 33 7.8 N 46 57 25 31 1012.7 1012.7 0.0
30/10:30am 18.7 8.2 3.7 37 7.1 N 48 59 26 32 1013.6 1013.5 0.0
30/10:00am 17.3 7.7 3.2 39 6.5 N 43 54 23 29 1013.9 1013.8 0.0
30/09:30am 15.9 7.4 3.4 43 5.7 N 37 48 20 26 1015.0 1014.9 0.0
30/09:00am 14.3 6.8 3.7 49 4.8 NNE 32 41 17 22 1015.7 1015.6 0.0
30/08:30am 12.8 5.3 3.5 53 4.2 NNE 32 39 17 21 1016.4 1016.3 0.0
30/08:00am 12.1 3.9 2.8 53 4.1 NNE 35 43 19 23 1016.7 1016.6 0.0
30/07:30am 11.7 3.9 2.7 54 3.9 NNE 33 44 18 24 1016.9 1016.8 0.0
30/07:00am 11.1 3.5 2.7 56 3.6 NNE 32 39 17 21 1017.2 1017.1 0.0
30/06:30am 10.5 3.3 2.8 59 3.3 NNE 30 35 16 19 1017.5 1017.4 0.0
30/06:00am 10.2 3.0 2.8 60 3.2 NNE 30 39 16 21 1017.8 1017.8 0.0
30/05:30am 10.2 3.3 2.8 60 3.2 NNE 28 33 15 18 1017.8 1017.8 0.0
30/05:00am 10.3 3.5 2.9 60 3.2 NNE 28 33 15 18 1017.9 1017.9 0.0
30/04:30am 10.3 3.8 2.9 60 3.2 NNE 26 33 14 18 1018.1 1018.1 0.0
30/04:00am 10.4 2.8 3.0 60 3.2 NNE 32 35 17 19 1018.4 1018.4 0.0
30/03:30am 10.6 3.0 2.9 59 3.3 NNE 32 35 17 19 1018.5 1018.5 0.0
30/03:00am 10.5 3.2 2.6 58 3.4 NNE 30 35 16 19 1018.9 1018.9 0.0
30/02:30am 10.4 3.5 2.7 59 3.3 NNE 28 33 15 18 1019.1 1019.1 0.0
30/02:00am 10.6 3.0 2.9 59 3.3 NNE 32 37 17 20 1019.2 1019.2 0.0
30/01:30am 10.8 4.0 3.1 59 3.3 NNE 28 35 15 19 1019.4 1019.4 0.0
30/01:00am 10.5 3.7 3.1 60 3.2 NNE 28 32 15 17 1019.7 1019.7 0.0
30/12:30am 10.5 4.0 2.8 59 3.3 NNE 26 30 14 16 1019.8 1019.8 0.0
30/12:00am 10.6 3.7 2.7 58 3.4 NNE 28 33 15 18 1020.3 1020.3 0.0
 
Date/Time
CST
Temp
°C
App
Temp
°C
Dew
Point
°C
Rel
Hum
%
Delta-T
°C
Wind Press
QNH
hPa
Press
MSL
hPa
Rain since
9am
mm
Dir  Spd
km/h
Gust
km/h
Spd
kts
Gust
kts
29/11:30pm 10.8 4.4 3.1 59 3.3 NNE 26 32 14 17 1020.6 1020.6 0.0
29/11:00pm 9.0 3.4 3.4 68 2.4 NE 22 24 12 13 1021.0 1021.0 0.0
29/10:30pm 9.4 3.8 3.6 67 2.5 NE 22 26 12 14 1020.9 1020.9 0.0
29/10:00pm 9.5 4.0 3.9 68 2.5 NE 22 24 12 13 1021.3 1021.3 0.0
29/09:30pm 10.2 5.1 4.1 66 2.7 NE 20 22 11 12 1021.7 1021.7 0.0
29/09:00pm 10.2 4.7 4.1 66 2.7 NE 22 24 12 13 1021.8 1021.8 0.0
29/08:30pm 9.6 4.4 3.6 66 2.6 NE 20 22 11 12 1022.0 1022.0 0.0
29/08:00pm 10.0 5.0 3.5 64 2.8 NE 19 20 10 11 1022.0 1022.0 0.0

Latest Capital City Observations: Canberra | Sydney | Melbourne | Brisbane | Adelaide | Perth | Hobart | Darwin

Other formats

Comma delimited format used in spreadsheet applications
http://www.bom.gov.au/fwo/IDS60901/IDS60901.95671.axf

JavaScript Object Notation format (JSON) in row-major order
http://www.bom.gov.au/fwo/IDS60901/IDS60901.95671.json

Data quality

Most of these data are generated automatically and are frequently updated. Quality checks on data are not normally performed. It is possible for incorrect values to appear. Refer to information at About Latest Weather Observations and please check the disclaimer before using these data.